sensor_id;sensor_type;location;lat;lon;timestamp;P1;durP1;ratioP1;P2;durP2;ratioP2
73859;SDS011;62197;51.632;13.700;2022-09-09T00:04:04;8.18;;;5.63;;
73859;SDS011;62197;51.632;13.700;2022-09-09T00:06:45;7.57;;;5.90;;
73859;SDS011;62197;51.632;13.700;2022-09-09T00:09:34;9.82;;;6.35;;
73859;SDS011;62197;51.632;13.700;2022-09-09T00:12:10;12.25;;;6.03;;
73859;SDS011;62197;51.632;13.700;2022-09-09T00:17:14;6.28;;;5.07;;
73859;SDS011;62197;51.632;13.700;2022-09-09T00:20:00;6.75;;;4.50;;
73859;SDS011;62197;51.632;13.700;2022-09-09T00:22:35;7.43;;;4.50;;
73859;SDS011;62197;51.632;13.700;2022-09-09T00:25:28;5.80;;;4.25;;
73859;SDS011;62197;51.632;13.700;2022-09-09T00:27:56;6.70;;;5.13;;
73859;SDS011;62197;51.632;13.700;2022-09-09T00:32:50;6.68;;;4.13;;
73859;SDS011;62197;51.632;13.700;2022-09-09T00:38:10;6.15;;;4.72;;
73859;SDS011;62197;51.632;13.700;2022-09-09T00:41:32;6.32;;;4.78;;
73859;SDS011;62197;51.632;13.700;2022-09-09T00:43:28;4.43;;;4.00;;
73859;SDS011;62197;51.632;13.700;2022-09-09T00:49:27;7.32;;;4.75;;
73859;SDS011;62197;51.632;13.700;2022-09-09T00:54:54;8.68;;;5.00;;
73859;SDS011;62197;51.632;13.700;2022-09-09T00:57:36;8.77;;;4.40;;
73859;SDS011;62197;51.632;13.700;2022-09-09T01:00:18;8.20;;;5.35;;
73859;SDS011;62197;51.632;13.700;2022-09-09T01:03:02;10.52;;;5.00;;
73859;SDS011;62197;51.632;13.700;2022-09-09T01:11:05;10.05;;;5.15;;
73859;SDS011;62197;51.632;13.700;2022-09-09T01:13:37;8.00;;;4.78;;
73859;SDS011;62197;51.632;13.700;2022-09-09T01:16:04;6.30;;;4.03;;
73859;SDS011;62197;51.632;13.700;2022-09-09T01:18:33;6.45;;;4.38;;
73859;SDS011;62197;51.632;13.700;2022-09-09T01:21:07;7.18;;;4.10;;
73859;SDS011;62197;51.632;13.700;2022-09-09T01:26:10;5.38;;;4.43;;
73859;SDS011;62197;51.632;13.700;2022-09-09T01:28:44;6.47;;;4.43;;
73859;SDS011;62197;51.632;13.700;2022-09-09T01:31:14;8.43;;;5.32;;
73859;SDS011;62197;51.632;13.700;2022-09-09T01:33:43;6.72;;;4.07;;
73859;SDS011;62197;51.632;13.700;2022-09-09T01:36:10;9.77;;;4.47;;
73859;SDS011;62197;51.632;13.700;2022-09-09T01:38:40;7.45;;;4.80;;
73859;SDS011;62197;51.632;13.700;2022-09-09T01:41:05;7.18;;;5.07;;
73859;SDS011;62197;51.632;13.700;2022-09-09T01:43:30;7.45;;;4.72;;
73859;SDS011;62197;51.632;13.700;2022-09-09T01:45:58;7.60;;;4.78;;
73859;SDS011;62197;51.632;13.700;2022-09-09T01:48:26;7.47;;;4.60;;
73859;SDS011;62197;51.632;13.700;2022-09-09T01:50:52;7.28;;;5.50;;
73859;SDS011;62197;51.632;13.700;2022-09-09T01:53:18;7.43;;;4.25;;
73859;SDS011;62197;51.632;13.700;2022-09-09T01:55:48;7.80;;;5.50;;
73859;SDS011;62197;51.632;13.700;2022-09-09T01:59:12;8.50;;;4.93;;
73859;SDS011;62197;51.632;13.700;2022-09-09T02:04:12;6.95;;;4.22;;
73859;SDS011;62197;51.632;13.700;2022-09-09T02:06:50;7.85;;;4.13;;
73859;SDS011;62197;51.632;13.700;2022-09-09T02:09:21;8.73;;;4.60;;
73859;SDS011;62197;51.632;13.700;2022-09-09T02:11:48;7.30;;;3.53;;
73859;SDS011;62197;51.632;13.700;2022-09-09T02:14:25;7.90;;;5.50;;
73859;SDS011;62197;51.632;13.700;2022-09-09T02:17:02;7.20;;;4.00;;
73859;SDS011;62197;51.632;13.700;2022-09-09T02:19:32;6.72;;;4.40;;
73859;SDS011;62197;51.632;13.700;2022-09-09T02:22:01;8.85;;;4.50;;
73859;SDS011;62197;51.632;13.700;2022-09-09T02:24:29;5.15;;;3.95;;
73859;SDS011;62197;51.632;13.700;2022-09-09T02:26:58;5.32;;;3.42;;
73859;SDS011;62197;51.632;13.700;2022-09-09T02:29:36;6.65;;;4.32;;
73859;SDS011;62197;51.632;13.700;2022-09-09T02:32:07;5.53;;;4.05;;
73859;SDS011;62197;51.632;13.700;2022-09-09T02:34:40;6.25;;;4.07;;
73859;SDS011;62197;51.632;13.700;2022-09-09T02:37:09;5.10;;;3.60;;
73859;SDS011;62197;51.632;13.700;2022-09-09T02:39:36;6.32;;;4.07;;
73859;SDS011;62197;51.632;13.700;2022-09-09T02:42:03;5.53;;;4.03;;
73859;SDS011;62197;51.632;13.700;2022-09-09T02:44:29;6.22;;;3.67;;
73859;SDS011;62197;51.632;13.700;2022-09-09T02:47:01;6.50;;;4.30;;
73859;SDS011;62197;51.632;13.700;2022-09-09T02:49:47;6.25;;;3.78;;
73859;SDS011;62197;51.632;13.700;2022-09-09T02:55:17;5.22;;;3.50;;
73859;SDS011;62197;51.632;13.700;2022-09-09T02:57:43;7.03;;;4.05;;
73859;SDS011;62197;51.632;13.700;2022-09-09T03:00:12;7.60;;;5.65;;
73859;SDS011;62197;51.632;13.700;2022-09-09T03:02:38;5.93;;;4.00;;
73859;SDS011;62197;51.632;13.700;2022-09-09T03:07:30;7.05;;;4.40;;
73859;SDS011;62197;51.632;13.700;2022-09-09T03:09:55;4.78;;;3.20;;
73859;SDS011;62197;51.632;13.700;2022-09-09T03:14:45;4.53;;;3.13;;
73859;SDS011;62197;51.632;13.700;2022-09-09T03:17:11;6.43;;;4.32;;
73859;SDS011;62197;51.632;13.700;2022-09-09T03:22:02;7.43;;;3.45;;
73859;SDS011;62197;51.632;13.700;2022-09-09T03:24:29;7.25;;;3.92;;
73859;SDS011;62197;51.632;13.700;2022-09-09T03:26:54;7.72;;;4.00;;
73859;SDS011;62197;51.632;13.700;2022-09-09T03:29:20;6.50;;;4.63;;
73859;SDS011;62197;51.632;13.700;2022-09-09T03:31:46;5.72;;;3.90;;
73859;SDS011;62197;51.632;13.700;2022-09-09T03:34:11;9.00;;;5.15;;
73859;SDS011;62197;51.632;13.700;2022-09-09T03:36:38;7.45;;;4.75;;
73859;SDS011;62197;51.632;13.700;2022-09-09T03:39:03;5.78;;;3.95;;
73859;SDS011;62197;51.632;13.700;2022-09-09T03:43:55;11.90;;;6.35;;
73859;SDS011;62197;51.632;13.700;2022-09-09T03:48:47;8.60;;;4.43;;
73859;SDS011;62197;51.632;13.700;2022-09-09T03:51:12;6.18;;;4.85;;
73859;SDS011;62197;51.632;13.700;2022-09-09T03:56:03;6.23;;;4.60;;
73859;SDS011;62197;51.632;13.700;2022-09-09T03:58:31;5.60;;;3.75;;
73859;SDS011;62197;51.632;13.700;2022-09-09T04:01:02;6.93;;;4.53;;
73859;SDS011;62197;51.632;13.700;2022-09-09T04:03:29;5.60;;;3.72;;
73859;SDS011;62197;51.632;13.700;2022-09-09T04:05:55;7.88;;;3.83;;
73859;SDS011;62197;51.632;13.700;2022-09-09T04:08:22;6.63;;;3.90;;
73859;SDS011;62197;51.632;13.700;2022-09-09T04:10:50;6.38;;;3.78;;
73859;SDS011;62197;51.632;13.700;2022-09-09T04:13:16;10.50;;;4.22;;
73859;SDS011;62197;51.632;13.700;2022-09-09T04:15:43;6.53;;;3.65;;
73859;SDS011;62197;51.632;13.700;2022-09-09T04:18:10;5.05;;;3.03;;
73859;SDS011;62197;51.632;13.700;2022-09-09T04:20:36;5.57;;;3.42;;
73859;SDS011;62197;51.632;13.700;2022-09-09T04:23:02;5.53;;;3.65;;
73859;SDS011;62197;51.632;13.700;2022-09-09T04:25:28;4.22;;;3.83;;
73859;SDS011;62197;51.632;13.700;2022-09-09T04:27:57;5.57;;;3.95;;
73859;SDS011;62197;51.632;13.700;2022-09-09T04:30:23;5.03;;;3.30;;
73859;SDS011;62197;51.632;13.700;2022-09-09T04:32:48;5.38;;;3.78;;
73859;SDS011;62197;51.632;13.700;2022-09-09T04:35:14;6.35;;;3.13;;
73859;SDS011;62197;51.632;13.700;2022-09-09T04:40:05;4.70;;;3.15;;
73859;SDS011;62197;51.632;13.700;2022-09-09T04:42:36;5.72;;;3.88;;
73859;SDS011;62197;51.632;13.700;2022-09-09T04:45:02;5.82;;;4.07;;
73859;SDS011;62197;51.632;13.700;2022-09-09T04:47:28;5.38;;;3.65;;
73859;SDS011;62197;51.632;13.700;2022-09-09T04:49:53;6.10;;;3.22;;
73859;SDS011;62197;51.632;13.700;2022-09-09T04:52:19;6.32;;;3.20;;
73859;SDS011;62197;51.632;13.700;2022-09-09T04:54:45;6.00;;;3.15;;
73859;SDS011;62197;51.632;13.700;2022-09-09T04:57:10;4.47;;;3.50;;
73859;SDS011;62197;51.632;13.700;2022-09-09T04:59:35;6.15;;;3.58;;
73859;SDS011;62197;51.632;13.700;2022-09-09T05:04:27;6.13;;;2.83;;
73859;SDS011;62197;51.632;13.700;2022-09-09T05:06:53;4.82;;;2.88;;
73859;SDS011;62197;51.632;13.700;2022-09-09T05:09:19;5.15;;;3.28;;
73859;SDS011;62197;51.632;13.700;2022-09-09T05:11:44;5.18;;;3.10;;
73859;SDS011;62197;51.632;13.700;2022-09-09T05:14:09;5.90;;;3.08;;
73859;SDS011;62197;51.632;13.700;2022-09-09T05:16:37;5.65;;;3.58;;
73859;SDS011;62197;51.632;13.700;2022-09-09T05:19:02;6.47;;;3.10;;
73859;SDS011;62197;51.632;13.700;2022-09-09T05:21:28;8.68;;;3.47;;
73859;SDS011;62197;51.632;13.700;2022-09-09T05:23:54;6.43;;;3.90;;
73859;SDS011;62197;51.632;13.700;2022-09-09T05:26:20;5.15;;;3.33;;
73859;SDS011;62197;51.632;13.700;2022-09-09T05:28:47;7.13;;;3.30;;
73859;SDS011;62197;51.632;13.700;2022-09-09T05:31:13;7.20;;;3.05;;
73859;SDS011;62197;51.632;13.700;2022-09-09T05:33:41;4.55;;;2.65;;
73859;SDS011;62197;51.632;13.700;2022-09-09T05:36:12;6.32;;;3.40;;
73859;SDS011;62197;51.632;13.700;2022-09-09T05:38:41;5.70;;;3.05;;
73859;SDS011;62197;51.632;13.700;2022-09-09T05:41:07;4.78;;;2.92;;
73859;SDS011;62197;51.632;13.700;2022-09-09T05:43:35;12.43;;;4.43;;
73859;SDS011;62197;51.632;13.700;2022-09-09T05:48:39;3.67;;;2.35;;
73859;SDS011;62197;51.632;13.700;2022-09-09T05:51:08;3.78;;;2.45;;
73859;SDS011;62197;51.632;13.700;2022-09-09T05:53:36;5.03;;;2.70;;
73859;SDS011;62197;51.632;13.700;2022-09-09T05:56:03;4.10;;;2.70;;
73859;SDS011;62197;51.632;13.700;2022-09-09T05:58:30;4.10;;;2.42;;
73859;SDS011;62197;51.632;13.700;2022-09-09T06:03:36;4.85;;;2.25;;
73859;SDS011;62197;51.632;13.700;2022-09-09T06:06:03;2.53;;;1.92;;
73859;SDS011;62197;51.632;13.700;2022-09-09T06:08:31;3.17;;;2.40;;
73859;SDS011;62197;51.632;13.700;2022-09-09T06:11:04;3.13;;;2.42;;
73859;SDS011;62197;51.632;13.700;2022-09-09T06:13:34;4.28;;;2.53;;
73859;SDS011;62197;51.632;13.700;2022-09-09T06:16:02;4.32;;;2.10;;
73859;SDS011;62197;51.632;13.700;2022-09-09T06:18:27;4.72;;;2.10;;
73859;SDS011;62197;51.632;13.700;2022-09-09T06:20:56;5.88;;;2.03;;
73859;SDS011;62197;51.632;13.700;2022-09-09T06:23:23;4.43;;;2.25;;
73859;SDS011;62197;51.632;13.700;2022-09-09T06:25:50;5.28;;;2.00;;
73859;SDS011;62197;51.632;13.700;2022-09-09T06:28:16;4.25;;;2.38;;
73859;SDS011;62197;51.632;13.700;2022-09-09T06:30:42;4.10;;;1.70;;
73859;SDS011;62197;51.632;13.700;2022-09-09T06:33:07;6.60;;;2.95;;
73859;SDS011;62197;51.632;13.700;2022-09-09T06:35:33;4.28;;;1.65;;
73859;SDS011;62197;51.632;13.700;2022-09-09T06:37:58;4.53;;;1.88;;
73859;SDS011;62197;51.632;13.700;2022-09-09T06:40:24;4.20;;;1.33;;
73859;SDS011;62197;51.632;13.700;2022-09-09T06:42:49;5.03;;;1.50;;
73859;SDS011;62197;51.632;13.700;2022-09-09T06:45:15;2.92;;;1.30;;
73859;SDS011;62197;51.632;13.700;2022-09-09T06:47:40;2.70;;;1.60;;
73859;SDS011;62197;51.632;13.700;2022-09-09T06:50:06;3.92;;;1.60;;
73859;SDS011;62197;51.632;13.700;2022-09-09T06:52:32;4.40;;;1.73;;
73859;SDS011;62197;51.632;13.700;2022-09-09T06:54:58;2.65;;;1.25;;
73859;SDS011;62197;51.632;13.700;2022-09-09T06:57:23;2.70;;;1.38;;
73859;SDS011;62197;51.632;13.700;2022-09-09T06:59:49;2.70;;;1.40;;
73859;SDS011;62197;51.632;13.700;2022-09-09T07:02:14;1.98;;;1.50;;
73859;SDS011;62197;51.632;13.700;2022-09-09T07:04:40;2.00;;;1.30;;
73859;SDS011;62197;51.632;13.700;2022-09-09T07:07:05;2.40;;;1.90;;
73859;SDS011;62197;51.632;13.700;2022-09-09T07:09:31;5.28;;;1.52;;
73859;SDS011;62197;51.632;13.700;2022-09-09T07:11:56;2.45;;;1.17;;
73859;SDS011;62197;51.632;13.700;2022-09-09T07:14:24;2.75;;;1.00;;
73859;SDS011;62197;51.632;13.700;2022-09-09T07:16:49;3.83;;;1.60;;
73859;SDS011;62197;51.632;13.700;2022-09-09T07:19:15;3.13;;;1.20;;
73859;SDS011;62197;51.632;13.700;2022-09-09T07:21:40;3.88;;;1.42;;
73859;SDS011;62197;51.632;13.700;2022-09-09T07:24:06;6.07;;;1.55;;
73859;SDS011;62197;51.632;13.700;2022-09-09T07:26:32;3.05;;;1.17;;
73859;SDS011;62197;51.632;13.700;2022-09-09T07:28:58;3.38;;;1.40;;
73859;SDS011;62197;51.632;13.700;2022-09-09T07:31:28;2.60;;;1.10;;
73859;SDS011;62197;51.632;13.700;2022-09-09T07:33:56;3.83;;;1.58;;
73859;SDS011;62197;51.632;13.700;2022-09-09T07:36:23;4.38;;;1.20;;
73859;SDS011;62197;51.632;13.700;2022-09-09T07:38:54;2.55;;;1.10;;
73859;SDS011;62197;51.632;13.700;2022-09-09T07:41:23;4.20;;;0.98;;
73859;SDS011;62197;51.632;13.700;2022-09-09T07:43:53;2.42;;;1.00;;
73859;SDS011;62197;51.632;13.700;2022-09-09T07:46:20;3.72;;;0.80;;
73859;SDS011;62197;51.632;13.700;2022-09-09T07:48:48;3.78;;;1.50;;
73859;SDS011;62197;51.632;13.700;2022-09-09T07:51:17;4.78;;;2.03;;
73859;SDS011;62197;51.632;13.700;2022-09-09T07:53:58;3.33;;;0.80;;
73859;SDS011;62197;51.632;13.700;2022-09-09T07:56:26;2.28;;;0.75;;
73859;SDS011;62197;51.632;13.700;2022-09-09T07:58:53;1.95;;;0.70;;
73859;SDS011;62197;51.632;13.700;2022-09-09T08:01:24;3.17;;;0.70;;
73859;SDS011;62197;51.632;13.700;2022-09-09T08:03:53;4.20;;;1.10;;
73859;SDS011;62197;51.632;13.700;2022-09-09T08:06:29;3.55;;;0.90;;
73859;SDS011;62197;51.632;13.700;2022-09-09T08:08:58;1.98;;;0.60;;
73859;SDS011;62197;51.632;13.700;2022-09-09T08:11:24;2.42;;;0.60;;
73859;SDS011;62197;51.632;13.700;2022-09-09T08:13:51;3.35;;;0.47;;
73859;SDS011;62197;51.632;13.700;2022-09-09T08:16:22;1.98;;;0.82;;
73859;SDS011;62197;51.632;13.700;2022-09-09T08:18:49;2.22;;;0.55;;
73859;SDS011;62197;51.632;13.700;2022-09-09T08:21:17;2.25;;;0.77;;
73859;SDS011;62197;51.632;13.700;2022-09-09T08:23:45;5.95;;;0.80;;
73859;SDS011;62197;51.632;13.700;2022-09-09T08:26:13;3.20;;;0.57;;
73859;SDS011;62197;51.632;13.700;2022-09-09T08:28:47;1.35;;;0.50;;
73859;SDS011;62197;51.632;13.700;2022-09-09T08:31:15;3.65;;;0.68;;
73859;SDS011;62197;51.632;13.700;2022-09-09T08:33:42;2.67;;;0.73;;
73859;SDS011;62197;51.632;13.700;2022-09-09T08:36:11;3.08;;;0.50;;
73859;SDS011;62197;51.632;13.700;2022-09-09T08:38:40;0.77;;;0.60;;
73859;SDS011;62197;51.632;13.700;2022-09-09T08:43:58;5.90;;;0.70;;
73859;SDS011;62197;51.632;13.700;2022-09-09T08:46:37;1.92;;;0.50;;
73859;SDS011;62197;51.632;13.700;2022-09-09T08:49:18;1.73;;;0.40;;
73859;SDS011;62197;51.632;13.700;2022-09-09T08:52:06;2.92;;;0.50;;
73859;SDS011;62197;51.632;13.700;2022-09-09T08:54:40;2.47;;;0.50;;
73859;SDS011;62197;51.632;13.700;2022-09-09T08:57:07;1.90;;;0.40;;
73859;SDS011;62197;51.632;13.700;2022-09-09T08:59:51;2.25;;;0.50;;
73859;SDS011;62197;51.632;13.700;2022-09-09T09:05:18;1.63;;;0.73;;
73859;SDS011;62197;51.632;13.700;2022-09-09T09:11:02;2.42;;;0.43;;
73859;SDS011;62197;51.632;13.700;2022-09-09T09:13:38;1.73;;;0.52;;
73859;SDS011;62197;51.632;13.700;2022-09-09T09:16:12;0.68;;;0.30;;
73859;SDS011;62197;51.632;13.700;2022-09-09T09:18:43;3.25;;;0.40;;
73859;SDS011;62197;51.632;13.700;2022-09-09T09:24:15;1.42;;;0.60;;
73859;SDS011;62197;51.632;13.700;2022-09-09T09:26:49;1.30;;;0.38;;
73859;SDS011;62197;51.632;13.700;2022-09-09T09:29:15;2.67;;;0.40;;
73859;SDS011;62197;51.632;13.700;2022-09-09T09:31:45;3.75;;;0.50;;
73859;SDS011;62197;51.632;13.700;2022-09-09T09:34:16;3.00;;;0.50;;
73859;SDS011;62197;51.632;13.700;2022-09-09T09:36:46;2.80;;;0.60;;
73859;SDS011;62197;51.632;13.700;2022-09-09T09:39:25;2.97;;;0.40;;
73859;SDS011;62197;51.632;13.700;2022-09-09T09:41:52;2.58;;;0.50;;
73859;SDS011;62197;51.632;13.700;2022-09-09T09:44:21;1.27;;;0.35;;
73859;SDS011;62197;51.632;13.700;2022-09-09T09:46:50;2.50;;;0.50;;
73859;SDS011;62197;51.632;13.700;2022-09-09T09:49:16;1.52;;;0.55;;
73859;SDS011;62197;51.632;13.700;2022-09-09T09:51:42;1.30;;;0.38;;
73859;SDS011;62197;51.632;13.700;2022-09-09T09:54:18;3.35;;;0.50;;
73859;SDS011;62197;51.632;13.700;2022-09-09T09:56:53;1.75;;;0.47;;
73859;SDS011;62197;51.632;13.700;2022-09-09T10:01:52;3.15;;;0.68;;
73859;SDS011;62197;51.632;13.700;2022-09-09T10:04:19;3.00;;;0.60;;
73859;SDS011;62197;51.632;13.700;2022-09-09T10:06:48;2.40;;;0.40;;
73859;SDS011;62197;51.632;13.700;2022-09-09T10:09:21;1.48;;;0.40;;
73859;SDS011;62197;51.632;13.700;2022-09-09T10:11:57;3.83;;;0.50;;
73859;SDS011;62197;51.632;13.700;2022-09-09T10:17:42;2.30;;;0.70;;
73859;SDS011;62197;51.632;13.700;2022-09-09T10:26:12;1.52;;;0.40;;
73859;SDS011;62197;51.632;13.700;2022-09-09T10:29:10;2.60;;;0.57;;
73859;SDS011;62197;51.632;13.700;2022-09-09T10:32:07;4.25;;;1.40;;
73859;SDS011;62197;51.632;13.700;2022-09-09T10:34:51;1.17;;;0.60;;
73859;SDS011;62197;51.632;13.700;2022-09-09T10:40:28;1.92;;;0.30;;
73859;SDS011;62197;51.632;13.700;2022-09-09T10:43:04;2.90;;;0.40;;
73859;SDS011;62197;51.632;13.700;2022-09-09T10:48:41;1.75;;;0.30;;
73859;SDS011;62197;51.632;13.700;2022-09-09T10:51:17;2.15;;;0.60;;
73859;SDS011;62197;51.632;13.700;2022-09-09T10:56:38;0.88;;;0.45;;
73859;SDS011;62197;51.632;13.700;2022-09-09T10:59:07;1.40;;;0.20;;
73859;SDS011;62197;51.632;13.700;2022-09-09T11:01:41;1.35;;;0.10;;
73859;SDS011;62197;51.632;13.700;2022-09-09T11:06:47;1.92;;;0.32;;
73859;SDS011;62197;51.632;13.700;2022-09-09T11:09:18;1.02;;;0.10;;
73859;SDS011;62197;51.632;13.700;2022-09-09T11:11:54;0.80;;;0.10;;
73859;SDS011;62197;51.632;13.700;2022-09-09T11:14:22;2.22;;;0.32;;
73859;SDS011;62197;51.632;13.700;2022-09-09T11:17:02;1.77;;;0.32;;
73859;SDS011;62197;51.632;13.700;2022-09-09T11:19:37;3.33;;;0.40;;
73859;SDS011;62197;51.632;13.700;2022-09-09T11:22:07;1.98;;;0.20;;
73859;SDS011;62197;51.632;13.700;2022-09-09T11:24:42;0.43;;;0.20;;
73859;SDS011;62197;51.632;13.700;2022-09-09T11:27:20;1.60;;;0.10;;
73859;SDS011;62197;51.632;13.700;2022-09-09T11:38:40;2.05;;;0.20;;
73859;SDS011;62197;51.632;13.700;2022-09-09T11:41:11;2.25;;;0.30;;
73859;SDS011;62197;51.632;13.700;2022-09-09T11:43:43;2.22;;;0.20;;
73859;SDS011;62197;51.632;13.700;2022-09-09T11:46:11;1.30;;;0.35;;
73859;SDS011;62197;51.632;13.700;2022-09-09T11:48:41;1.63;;;0.22;;
73859;SDS011;62197;51.632;13.700;2022-09-09T11:51:12;2.88;;;0.30;;
73859;SDS011;62197;51.632;13.700;2022-09-09T11:53:54;1.17;;;0.20;;
73859;SDS011;62197;51.632;13.700;2022-09-09T11:56:24;1.77;;;0.43;;
73859;SDS011;62197;51.632;13.700;2022-09-09T11:58:55;2.05;;;0.30;;
73859;SDS011;62197;51.632;13.700;2022-09-09T12:01:41;2.05;;;0.47;;
73859;SDS011;62197;51.632;13.700;2022-09-09T12:06:41;0.95;;;0.15;;
73859;SDS011;62197;51.632;13.700;2022-09-09T12:11:48;2.55;;;0.28;;
73859;SDS011;62197;51.632;13.700;2022-09-09T12:14:20;1.08;;;0.40;;
73859;SDS011;62197;51.632;13.700;2022-09-09T12:16:46;1.90;;;0.40;;
73859;SDS011;62197;51.632;13.700;2022-09-09T12:21:44;2.40;;;0.30;;
73859;SDS011;62197;51.632;13.700;2022-09-09T12:24:17;2.45;;;0.30;;
73859;SDS011;62197;51.632;13.700;2022-09-09T12:27:03;1.60;;;0.22;;
73859;SDS011;62197;51.632;13.700;2022-09-09T12:29:55;1.40;;;0.30;;
73859;SDS011;62197;51.632;13.700;2022-09-09T12:32:24;2.50;;;0.22;;
73859;SDS011;62197;51.632;13.700;2022-09-09T12:35:02;2.80;;;0.55;;
73859;SDS011;62197;51.632;13.700;2022-09-09T12:40:18;1.15;;;0.20;;
73859;SDS011;62197;51.632;13.700;2022-09-09T12:42:44;2.88;;;0.60;;
73859;SDS011;62197;51.632;13.700;2022-09-09T12:48:06;1.63;;;0.45;;
73859;SDS011;62197;51.632;13.700;2022-09-09T12:50:49;0.82;;;0.73;;
73859;SDS011;62197;51.632;13.700;2022-09-09T12:53:21;1.83;;;0.75;;
73859;SDS011;62197;51.632;13.700;2022-09-09T12:55:52;3.20;;;0.65;;
73859;SDS011;62197;51.632;13.700;2022-09-09T12:58:27;5.60;;;0.80;;
73859;SDS011;62197;51.632;13.700;2022-09-09T13:00:57;1.20;;;0.30;;
73859;SDS011;62197;51.632;13.700;2022-09-09T13:03:24;3.67;;;0.88;;
73859;SDS011;62197;51.632;13.700;2022-09-09T13:05:50;3.47;;;0.80;;
73859;SDS011;62197;51.632;13.700;2022-09-09T13:08:16;3.80;;;0.80;;
73859;SDS011;62197;51.632;13.700;2022-09-09T13:13:21;4.45;;;0.77;;
73859;SDS011;62197;51.632;13.700;2022-09-09T13:15:52;4.55;;;0.95;;
73859;SDS011;62197;51.632;13.700;2022-09-09T13:18:21;2.47;;;0.50;;
73859;SDS011;62197;51.632;13.700;2022-09-09T13:20:53;3.95;;;0.68;;
73859;SDS011;62197;51.632;13.700;2022-09-09T13:23:19;3.53;;;1.02;;
73859;SDS011;62197;51.632;13.700;2022-09-09T13:26:31;5.28;;;0.60;;
73859;SDS011;62197;51.632;13.700;2022-09-09T13:28:49;3.97;;;0.60;;
73859;SDS011;62197;51.632;13.700;2022-09-09T13:31:22;2.83;;;1.00;;
73859;SDS011;62197;51.632;13.700;2022-09-09T13:33:52;4.22;;;0.70;;
73859;SDS011;62197;51.632;13.700;2022-09-09T13:36:27;3.05;;;0.70;;
73859;SDS011;62197;51.632;13.700;2022-09-09T13:38:55;2.15;;;0.80;;
73859;SDS011;62197;51.632;13.700;2022-09-09T13:41:22;4.93;;;0.75;;
73859;SDS011;62197;51.632;13.700;2022-09-09T13:43:49;3.53;;;0.70;;
73859;SDS011;62197;51.632;13.700;2022-09-09T13:46:33;2.72;;;0.60;;
73859;SDS011;62197;51.632;13.700;2022-09-09T13:51:34;3.95;;;0.50;;
73859;SDS011;62197;51.632;13.700;2022-09-09T13:54:01;3.67;;;0.80;;
73859;SDS011;62197;51.632;13.700;2022-09-09T13:56:27;2.53;;;0.60;;
73859;SDS011;62197;51.632;13.700;2022-09-09T13:58:53;2.47;;;0.70;;
73859;SDS011;62197;51.632;13.700;2022-09-09T14:01:19;3.30;;;0.90;;
73859;SDS011;62197;51.632;13.700;2022-09-09T14:03:45;2.50;;;0.70;;
73859;SDS011;62197;51.632;13.700;2022-09-09T14:06:10;2.55;;;0.70;;
73859;SDS011;62197;51.632;13.700;2022-09-09T14:08:36;2.42;;;0.52;;
73859;SDS011;62197;51.632;13.700;2022-09-09T14:11:02;3.72;;;0.52;;
73859;SDS011;62197;51.632;13.700;2022-09-09T14:13:28;2.92;;;0.68;;
73859;SDS011;62197;51.632;13.700;2022-09-09T14:15:54;2.15;;;0.30;;
73859;SDS011;62197;51.632;13.700;2022-09-09T14:18:19;3.00;;;0.80;;
73859;SDS011;62197;51.632;13.700;2022-09-09T14:20:45;2.58;;;0.70;;
73859;SDS011;62197;51.632;13.700;2022-09-09T14:23:11;3.45;;;0.60;;
73859;SDS011;62197;51.632;13.700;2022-09-09T14:25:38;2.33;;;0.57;;
73859;SDS011;62197;51.632;13.700;2022-09-09T14:28:04;3.13;;;0.52;;
73859;SDS011;62197;51.632;13.700;2022-09-09T14:30:30;1.48;;;0.60;;
73859;SDS011;62197;51.632;13.700;2022-09-09T14:32:55;2.28;;;0.73;;
73859;SDS011;62197;51.632;13.700;2022-09-09T14:35:20;1.75;;;0.65;;
73859;SDS011;62197;51.632;13.700;2022-09-09T14:37:47;1.50;;;0.30;;
73859;SDS011;62197;51.632;13.700;2022-09-09T14:40:16;4.10;;;0.52;;
73859;SDS011;62197;51.632;13.700;2022-09-09T14:42:41;2.28;;;0.57;;
73859;SDS011;62197;51.632;13.700;2022-09-09T14:45:07;2.95;;;0.40;;
73859;SDS011;62197;51.632;13.700;2022-09-09T14:47:32;2.60;;;0.52;;
73859;SDS011;62197;51.632;13.700;2022-09-09T14:49:58;2.38;;;0.40;;
73859;SDS011;62197;51.632;13.700;2022-09-09T14:52:23;2.78;;;0.65;;
73859;SDS011;62197;51.632;13.700;2022-09-09T14:54:48;2.75;;;0.50;;
73859;SDS011;62197;51.632;13.700;2022-09-09T14:57:14;1.52;;;0.35;;
73859;SDS011;62197;51.632;13.700;2022-09-09T14:59:39;1.20;;;0.63;;
73859;SDS011;62197;51.632;13.700;2022-09-09T15:02:05;1.83;;;0.77;;
73859;SDS011;62197;51.632;13.700;2022-09-09T15:04:30;6.22;;;1.80;;
73859;SDS011;62197;51.632;13.700;2022-09-09T15:06:55;1.63;;;0.52;;
73859;SDS011;62197;51.632;13.700;2022-09-09T15:09:21;1.20;;;0.30;;
73859;SDS011;62197;51.632;13.700;2022-09-09T15:11:47;1.92;;;0.38;;
73859;SDS011;62197;51.632;13.700;2022-09-09T15:14:13;2.17;;;0.50;;
73859;SDS011;62197;51.632;13.700;2022-09-09T15:16:38;1.63;;;0.52;;
73859;SDS011;62197;51.632;13.700;2022-09-09T15:19:04;2.65;;;0.40;;
73859;SDS011;62197;51.632;13.700;2022-09-09T15:21:31;1.48;;;0.30;;
73859;SDS011;62197;51.632;13.700;2022-09-09T15:23:58;2.78;;;0.43;;
73859;SDS011;62197;51.632;13.700;2022-09-09T15:26:24;2.10;;;0.40;;
73859;SDS011;62197;51.632;13.700;2022-09-09T15:28:49;2.63;;;0.50;;
73859;SDS011;62197;51.632;13.700;2022-09-09T15:31:19;1.27;;;0.30;;
73859;SDS011;62197;51.632;13.700;2022-09-09T15:33:49;1.58;;;0.47;;
73859;SDS011;62197;51.632;13.700;2022-09-09T15:38:46;3.05;;;0.60;;
73859;SDS011;62197;51.632;13.700;2022-09-09T15:41:12;1.90;;;0.50;;
73859;SDS011;62197;51.632;13.700;2022-09-09T15:43:38;2.15;;;0.60;;
73859;SDS011;62197;51.632;13.700;2022-09-09T15:46:27;1.45;;;0.60;;
73859;SDS011;62197;51.632;13.700;2022-09-09T15:49:03;1.85;;;0.50;;
73859;SDS011;62197;51.632;13.700;2022-09-09T15:51:31;2.38;;;0.60;;
73859;SDS011;62197;51.632;13.700;2022-09-09T15:53:58;2.55;;;0.77;;
73859;SDS011;62197;51.632;13.700;2022-09-09T15:56:24;3.97;;;1.00;;
73859;SDS011;62197;51.632;13.700;2022-09-09T15:58:52;4.13;;;1.20;;
73859;SDS011;62197;51.632;13.700;2022-09-09T16:01:18;4.32;;;0.90;;
73859;SDS011;62197;51.632;13.700;2022-09-09T16:03:44;2.47;;;0.77;;
73859;SDS011;62197;51.632;13.700;2022-09-09T16:06:11;4.60;;;1.02;;
73859;SDS011;62197;51.632;13.700;2022-09-09T16:08:40;1.73;;;0.73;;
73859;SDS011;62197;51.632;13.700;2022-09-09T16:11:11;3.72;;;0.98;;
73859;SDS011;62197;51.632;13.700;2022-09-09T16:13:43;2.53;;;0.82;;
73859;SDS011;62197;51.632;13.700;2022-09-09T16:16:12;2.20;;;0.77;;
73859;SDS011;62197;51.632;13.700;2022-09-09T16:18:43;3.55;;;0.73;;
73859;SDS011;62197;51.632;13.700;2022-09-09T16:21:14;2.13;;;1.00;;
73859;SDS011;62197;51.632;13.700;2022-09-09T16:23:41;2.92;;;0.93;;
73859;SDS011;62197;51.632;13.700;2022-09-09T16:26:08;4.47;;;0.90;;
73859;SDS011;62197;51.632;13.700;2022-09-09T16:28:36;2.97;;;0.95;;
73859;SDS011;62197;51.632;13.700;2022-09-09T16:31:08;5.32;;;1.15;;
73859;SDS011;62197;51.632;13.700;2022-09-09T16:33:36;4.60;;;1.10;;
73859;SDS011;62197;51.632;13.700;2022-09-09T16:36:20;4.07;;;0.90;;
73859;SDS011;62197;51.632;13.700;2022-09-09T16:38:54;2.60;;;1.13;;
73859;SDS011;62197;51.632;13.700;2022-09-09T16:43:47;1.88;;;0.65;;
73859;SDS011;62197;51.632;13.700;2022-09-09T16:46:18;2.75;;;0.88;;
73859;SDS011;62197;51.632;13.700;2022-09-09T16:48:45;3.38;;;0.88;;
73859;SDS011;62197;51.632;13.700;2022-09-09T16:51:13;2.33;;;0.77;;